Time;durP1;ratioP1;P1;durP2;ratioP2;P2;SDS_P1;SDS_P2;PMS_P1;PMS_P2;Temp;Humidity;BMP_temperature;BMP_pressure;BME280_temperature;BME280_humidity;BME280_pressure;Samples;Min_cycle;Max_cycle;Signal;HPM_P1;HPM_P2
2021/12/19 00:04:35;;;;;;;17.73;8.80;;;;;;;7.62;56.21;101192.44;5451088;32;34064;-63
2021/12/19 00:11:03;;;;;;;17.25;8.85;;;;;;;6.71;59.12;101196.16;5450372;32;34979;-62
2021/12/19 00:14:06;;;;;;;17.37;8.57;;;;;;;6.67;59.33;101177.91;5446143;32;33135;-62
2021/12/19 00:17:11;;;;;;;19.20;9.10;;;;;;;7.59;56.40;101178.50;5438010;32;33157;-63
2021/12/19 00:20:13;;;;;;;16.92;9.35;;;;;;;7.31;56.39;101177.16;5455719;32;32965;-63
2021/12/19 00:23:37;;;;;;;19.97;9.60;;;;;;;7.36;56.77;101172.75;5447741;32;35094;-63
2021/12/19 00:26:39;;;;;;;16.30;8.57;;;;;;;8.02;54.95;101167.41;5435560;32;34090;-62
2021/12/19 00:29:42;;;;;;;20.60;9.15;;;;;;;7.62;56.13;101168.91;5430263;32;35000;-63
2021/12/19 00:32:45;;;;;;;16.25;9.02;;;;;;;7.44;56.96;101160.41;5439502;32;35809;-63
2021/12/19 00:35:51;;;;;;;17.33;8.93;;;;;;;7.34;56.51;101153.56;5445950;32;34493;-61
2021/12/19 00:38:54;;;;;;;19.20;8.47;;;;;;;6.90;58.76;101148.94;5442175;32;35053;-62
2021/12/19 00:42:04;;;;;;;19.50;8.63;;;;;;;6.89;58.92;101150.69;5445728;32;34309;-62
2021/12/19 00:45:27;;;;;;;18.50;9.23;;;;;;;5.36;65.32;101159.78;5456964;32;35089;-62
2021/12/19 00:48:51;;;;;;;17.57;8.23;;;;;;;5.82;64.44;101156.88;5452043;32;33533;-63
2021/12/19 00:51:54;;;;;;;18.17;8.67;;;;;;;5.98;64.56;101158.53;5426673;32;32939;-62
2021/12/19 00:54:57;;;;;;;19.67;9.17;;;;;;;6.17;63.56;101167.06;5454025;32;34195;-62
2021/12/19 00:58:04;;;;;;;17.77;8.63;;;;;;;6.01;63.76;101172.44;5432869;32;34559;-63
2021/12/19 01:01:09;;;;;;;19.63;10.00;;;;;;;5.96;64.12;101181.16;5454578;32;32964;-63
2021/12/19 01:04:14;;;;;;;20.35;10.38;;;;;;;5.92;64.03;101184.66;5437833;32;33959;-62
2021/12/19 01:07:16;;;;;;;21.37;10.03;;;;;;;6.00;64.65;101181.16;5438505;32;33423;-62
2021/12/19 01:10:19;;;;;;;20.87;9.53;;;;;;;5.25;66.46;101177.22;5442440;32;34848;-63
2021/12/19 01:13:21;;;;;;;25.50;10.63;;;;;;;5.91;65.46;101164.66;5432138;32;35286;-62
2021/12/19 01:16:24;;;;;;;19.10;9.90;;;;;;;5.51;66.46;101158.84;5452220;32;34389;-63
2021/12/19 01:19:27;;;;;;;18.63;9.17;;;;;;;5.46;67.08;101149.31;5448035;32;34161;-62
2021/12/19 01:22:29;;;;;;;20.87;10.80;;;;;;;5.21;68.79;101144.22;5440652;32;34053;-62
2021/12/19 01:25:35;;;;;;;19.43;10.20;;;;;;;5.06;69.57;101142.56;5447130;32;34048;-63
2021/12/19 01:28:39;;;;;;;25.07;11.57;;;;;;;4.97;70.00;101134.78;5443703;32;33681;-62
2021/12/19 01:31:46;;;;;;;22.03;10.33;;;;;;;5.08;70.42;101135.59;5445504;32;34585;-63
2021/12/19 01:34:50;;;;;;;23.17;10.83;;;;;;;5.01;70.71;101130.41;5453172;32;36544;-63
2021/12/19 01:37:54;;;;;;;23.60;11.20;;;;;;;4.71;72.32;101121.87;5453843;32;34617;-64
2021/12/19 01:40:58;;;;;;;24.37;12.40;;;;;;;4.81;71.89;101120.94;5447434;32;34698;-62
2021/12/19 01:44:00;;;;;;;23.33;11.77;;;;;;;4.76;71.96;101122.69;5454206;32;34635;-62
2021/12/19 01:47:03;;;;;;;22.00;10.73;;;;;;;5.25;69.91;101114.66;5450693;32;33903;-62
2021/12/19 01:50:10;;;;;;;23.17;10.83;;;;;;;4.85;71.84;101114.00;5444975;32;34597;-62
2021/12/19 01:53:21;;;;;;;23.90;11.52;;;;;;;5.26;70.79;101100.75;5437946;32;33130;-62
2021/12/19 01:56:25;;;;;;;23.83;10.97;;;;;;;4.88;72.37;101098.34;5438131;32;35147;-62
2021/12/19 01:59:28;;;;;;;22.53;9.60;;;;;;;5.68;70.11;101070.94;5441510;32;32931;-63
2021/12/19 02:02:32;;;;;;;22.73;10.83;;;;;;;5.52;70.22;101078.88;5461815;32;33010;-63
2021/12/19 02:05:35;;;;;;;22.63;11.47;;;;;;;4.90;73.09;101073.19;5459284;32;34184;-63
2021/12/19 02:08:38;;;;;;;;;;;;;;;5.41;71.83;101072.00;5454317;32;34151;-62
2021/12/19 02:11:45;;;;;;;22.63;11.50;;;;;;;5.47;71.30;101062.38;5444015;32;34900;-63
2021/12/19 02:14:49;;;;;;;24.67;11.43;;;;;;;5.11;72.13;101053.94;5449901;32;33373;-62
2021/12/19 02:17:53;;;;;;;22.62;11.10;;;;;;;5.40;71.22;101053.75;5448169;32;35619;-62
2021/12/19 02:20:58;;;;;;;21.30;10.63;;;;;;;5.45;71.50;101054.59;5453205;32;33945;-63
2021/12/19 02:24:03;;;;;;;22.20;10.10;;;;;;;5.36;71.71;101041.63;5448829;32;34875;-62
2021/12/19 02:27:06;;;;;;;19.63;10.10;;;;;;;5.43;71.43;101041.56;5429565;32;33695;-63
2021/12/19 02:30:12;;;;;;;20.98;10.38;;;;;;;5.14;72.07;101044.34;5449219;32;35414;-62
2021/12/19 02:33:21;;;;;;;26.77;10.63;;;;;;;5.26;71.87;101027.78;5449355;32;33453;-62
2021/12/19 02:40:07;;;;;;;23.27;11.77;;;;;;;5.12;72.58;101016.59;5449400;32;34249;-63
2021/12/19 02:49:53;;;;;;;23.30;10.53;;;;;;;5.26;72.42;101003.47;5456164;32;35465;-62
2021/12/19 02:52:59;;;;;;;19.77;10.30;;;;;;;5.18;73.31;100987.03;5446554;32;33156;-61
2021/12/19 02:56:08;;;;;;;21.83;11.60;;;;;;;5.27;72.86;100992.16;5462757;32;34700;-63
2021/12/19 02:59:11;;;;;;;20.13;9.57;;;;;;;5.33;72.92;100998.19;5442995;32;33010;-63
2021/12/19 03:02:17;;;;;;;19.57;9.50;;;;;;;5.71;71.52;101004.81;5442152;32;35164;-62
2021/12/19 03:05:23;;;;;;;20.50;9.63;;;;;;;5.34;72.12;100978.19;5456165;32;33118;-63
2021/12/19 03:08:26;;;;;;;21.10;9.77;;;;;;;5.46;71.80;100983.31;5441996;32;32971;-63
2021/12/19 03:18:17;;;;;;;20.53;10.77;;;;;;;5.69;70.39;100947.47;5464358;32;35025;-62
2021/12/19 03:21:24;;;;;;;19.73;10.27;;;;;;;5.19;72.90;100950.53;5437941;32;32868;-62
2021/12/19 03:24:30;;;;;;;19.13;10.43;;;;;;;5.48;71.58;100944.22;5442041;32;33217;-62
2021/12/19 03:27:34;;;;;;;21.70;10.63;;;;;;;5.24;73.19;100953.09;5447811;32;34250;-62
2021/12/19 03:30:44;;;;;;;20.70;10.70;;;;;;;5.19;73.20;100953.13;5458535;32;32886;-62
2021/12/19 03:33:53;;;;;;;22.93;11.00;;;;;;;4.99;73.63;100949.81;5440118;32;33578;-63
2021/12/19 03:36:56;;;;;;;21.03;10.80;;;;;;;5.28;72.81;100937.44;5448191;32;34763;-63
2021/12/19 03:40:12;;;;;;;21.17;11.80;;;;;;;5.62;70.80;100942.31;5450226;32;34795;-62
2021/12/19 03:43:18;;;;;;;19.60;9.83;;;;;;;5.12;73.01;100931.47;5447576;32;34405;-63
2021/12/19 03:46:23;;;;;;;21.33;11.70;;;;;;;5.68;70.82;100922.25;5456558;32;34401;-62
2021/12/19 03:49:25;;;;;;;21.00;10.63;;;;;;;4.76;74.26;100924.78;5440692;32;34659;-62
2021/12/19 03:52:28;;;;;;;19.00;9.10;;;;;;;5.12;73.23;100928.87;5426180;32;34268;-61
2021/12/19 03:55:30;;;;;;;23.40;11.90;;;;;;;4.93;73.40;100922.06;5449695;32;33582;-62
2021/12/19 03:58:36;;;;;;;20.63;11.03;;;;;;;5.38;71.99;100920.81;5447133;32;33872;-62
2021/12/19 04:01:42;;;;;;;22.92;11.40;;;;;;;5.75;70.33;100915.22;5429840;32;35347;-62
2021/12/19 04:04:47;;;;;;;22.47;11.37;;;;;;;5.27;72.56;100922.66;5442896;32;33176;-62
2021/12/19 04:07:51;;;;;;;22.03;11.50;;;;;;;5.33;72.23;100929.56;5440454;32;35116;-62
2021/12/19 04:10:54;;;;;;;;;;;;;;;5.29;72.25;100936.56;5433772;32;34256;-62
2021/12/19 04:13:58;;;;;;;21.07;11.47;;;;;;;5.26;72.29;100922.66;5453804;32;34671;-62
2021/12/19 04:17:05;;;;;;;23.10;11.63;;;;;;;5.87;69.71;100924.69;5441329;32;35006;-62
2021/12/19 04:20:11;;;;;;;25.33;13.10;;;;;;;5.09;73.04;100930.66;5453027;32;35363;-62
2021/12/19 04:23:14;;;;;;;22.90;11.57;;;;;;;5.35;72.35;100931.28;5436169;32;34631;-62
2021/12/19 04:26:18;;;;;;;23.60;11.77;;;;;;;5.76;70.21;100932.59;5440662;32;34681;-63
2021/12/19 04:29:24;;;;;;;23.30;12.23;;;;;;;5.28;71.48;100936.53;5427061;32;34077;-63
2021/12/19 04:32:32;;;;;;;20.73;11.50;;;;;;;5.55;70.30;100938.06;5438363;32;34062;-62
2021/12/19 04:35:36;;;;;;;21.33;11.57;;;;;;;5.54;70.57;100933.69;5452914;32;34273;-63
2021/12/19 04:52:45;;;;;;;21.93;10.60;;;;;;;5.14;71.30;100887.16;5452472;32;35345;-63
2021/12/19 04:59:13;;;;;;;20.80;10.70;;;;;;;5.49;69.65;100865.97;5455350;32;33200;-63
2021/12/19 05:15:45;;;;;;;17.77;9.17;;;;;;;5.40;70.33;100829.56;5455853;32;34635;-63
2021/12/19 05:18:51;;;;;;;19.23;9.80;;;;;;;5.57;68.86;100821.56;5449847;32;34524;-62
2021/12/19 05:21:57;;;;;;;19.83;9.93;;;;;;;5.44;69.18;100815.63;5437029;32;34551;-61
2021/12/19 05:25:14;;;;;;;18.67;10.10;;;;;;;4.78;71.71;100825.84;5443426;32;35254;-62
2021/12/19 05:28:18;;;;;;;20.00;10.37;;;;;;;5.21;69.70;100830.63;5442679;32;34111;-62
2021/12/19 05:31:21;;;;;;;21.70;10.23;;;;;;;5.23;69.75;100832.34;5425863;32;35190;-62
2021/12/19 05:34:25;;;;;;;19.77;10.27;;;;;;;4.85;71.33;100825.75;5440301;32;34188;-62
2021/12/19 05:47:46;;;;;;;21.50;10.77;;;;;;;5.15;70.27;100810.69;5428913;32;37010;-63
2021/12/19 05:50:49;;;;;;;19.73;10.20;;;;;;;5.15;70.74;100805.50;5461383;32;34276;-62
2021/12/19 05:53:52;;;;;;;18.53;9.53;;;;;;;5.13;71.04;100802.03;5455668;32;34686;-63
2021/12/19 05:56:54;;;;;;;17.67;9.70;;;;;;;5.27;70.05;100799.28;5438292;32;33553;-62
2021/12/19 05:59:58;;;;;;;19.80;10.32;;;;;;;4.88;72.21;100804.88;5456396;32;34661;-63
2021/12/19 06:03:03;;;;;;;21.67;10.55;;;;;;;4.90;72.03;100794.47;5448828;32;33126;-62
2021/12/19 06:06:07;;;;;;;19.93;10.47;;;;;;;5.84;68.06;100794.25;5446922;32;36063;-62
2021/12/19 06:09:09;;;;;;;19.27;9.95;;;;;;;5.02;71.91;100794.31;5448295;32;34283;-61
2021/12/19 06:12:11;;;;;;;20.03;9.50;;;;;;;5.68;69.75;100794.47;5460190;32;33974;-62
2021/12/19 06:15:15;;;;;;;18.47;9.23;;;;;;;5.74;68.85;100780.50;5446890;32;34758;-63
2021/12/19 06:18:17;;;;;;;19.08;9.75;;;;;;;6.01;67.84;100768.00;5449294;32;34129;-62
2021/12/19 06:21:22;;;;;;;18.93;10.40;;;;;;;5.61;70.35;100776.31;5448286;32;33879;-61
2021/12/19 06:24:24;;;;;;;18.00;9.57;;;;;;;6.09;68.13;100781.78;5434706;32;34033;-61
2021/12/19 06:27:27;;;;;;;18.23;9.77;;;;;;;5.23;71.35;100777.62;5437830;32;33897;-62
2021/12/19 06:30:31;;;;;;;17.60;9.57;;;;;;;5.68;69.62;100780.56;5430581;32;34731;-62
2021/12/19 06:33:33;;;;;;;;;;;;;;;5.21;71.70;100776.75;5442758;32;34852;-63
2021/12/19 06:36:37;;;;;;;20.53;10.23;;;;;;;5.57;70.52;100779.84;5437872;32;35016;-62
2021/12/19 06:39:40;;;;;;;17.77;8.88;;;;;;;5.07;72.23;100773.44;5439426;32;35082;-62
2021/12/19 06:42:43;;;;;;;;;;;;;;;5.59;70.97;100770.25;5440731;32;34400;-64
2021/12/19 06:45:50;;;;;;;18.17;9.33;;;;;;;5.60;70.86;100762.41;5454281;32;34890;-62
2021/12/19 06:48:53;;;;;;;16.63;8.50;;;;;;;5.48;71.20;100757.34;5453221;32;34695;-62
2021/12/19 06:51:56;;;;;;;17.20;9.32;;;;;;;5.67;70.33;100758.84;5427663;32;35479;-62
2021/12/19 06:55:00;;;;;;;17.27;8.60;;;;;;;5.49;71.89;100764.28;5452166;32;34246;-63
2021/12/19 06:58:03;;;;;;;16.03;8.17;;;;;;;5.50;70.78;100755.59;5435134;32;35732;-63
2021/12/19 07:01:07;;;;;;;16.48;8.43;;;;;;;5.60;71.20;100743.28;5455756;32;34990;-63
2021/12/19 07:04:10;;;;;;;15.55;8.10;;;;;;;5.74;69.47;100733.56;5441593;32;34380;-63
2021/12/19 07:07:12;;;;;;;15.93;8.67;;;;;;;5.47;71.34;100728.69;5443725;32;34626;-62
2021/12/19 07:10:16;;;;;;;16.77;8.30;;;;;;;5.13;72.66;100737.75;5459885;32;34146;-63
2021/12/19 07:13:20;;;;;;;20.80;11.40;;;;;;;5.06;73.52;100737.84;5445981;32;33677;-62
2021/12/19 07:16:23;;;;;;;15.57;7.67;;;;;;;5.26;71.84;100724.59;5442849;32;34821;-62
2021/12/19 07:19:25;;;;;;;15.93;8.37;;;;;;;5.49;71.12;100733.00;5442882;32;35057;-63
2021/12/19 07:22:28;;;;;;;15.17;7.47;;;;;;;5.21;72.28;100737.66;5427333;32;34068;-63
2021/12/19 07:25:30;;;;;;;17.80;8.73;;;;;;;5.20;72.67;100732.47;5455926;32;31105;-62
2021/12/19 07:28:46;;;;;;;14.57;7.13;;;;;;;5.32;72.25;100721.91;5434181;32;33158;-63
2021/12/19 07:31:49;;;;;;;16.70;8.07;;;;;;;5.44;71.42;100720.03;5433479;32;34107;-61
2021/12/19 07:34:51;;;;;;;17.00;7.93;;;;;;;5.12;72.80;100719.56;5448965;32;32861;-62
2021/12/19 07:37:56;;;;;;;15.33;7.50;;;;;;;5.87;70.78;100716.84;5442415;32;34703;-64
2021/12/19 07:41:09;;;;;;;14.87;7.73;;;;;;;5.57;71.06;100714.66;5444231;32;36990;-63
2021/12/19 07:44:13;;;;;;;16.73;8.33;;;;;;;5.86;70.53;100722.06;5429898;32;35187;-62
2021/12/19 07:47:18;;;;;;;13.37;7.77;;;;;;;5.81;70.88;100700.41;5464369;32;34209;-63
2021/12/19 07:50:21;;;;;;;13.73;7.27;;;;;;;5.83;70.72;100706.47;5428495;32;34655;-63
2021/12/19 07:53:24;;;;;;;16.05;8.52;;;;;;;5.60;71.13;100709.38;5446916;32;33942;-63
2021/12/19 07:56:27;;;;;;;15.77;8.73;;;;;;;5.28;71.92;100700.25;5434811;32;33819;-63
2021/12/19 07:59:31;;;;;;;15.03;7.37;;;;;;;6.01;70.08;100705.37;5460710;32;33624;-63
2021/12/19 08:02:34;;;;;;;16.23;7.87;;;;;;;6.11;69.35;100701.72;5441996;32;33615;-62
2021/12/19 08:05:36;;;;;;;15.47;7.33;;;;;;;5.98;69.94;100688.84;5432923;32;34641;-63
2021/12/19 08:08:46;;;;;;;14.98;7.87;;;;;;;6.23;68.85;100681.50;5461707;32;32960;-62
2021/12/19 08:11:51;;;;;;;13.53;6.10;;;;;;;6.17;69.43;100678.97;5440545;32;34344;-62
2021/12/19 08:15:04;;;;;;;14.57;7.50;;;;;;;6.63;67.06;100683.41;5436880;32;33614;-62
2021/12/19 08:18:07;;;;;;;14.97;7.10;;;;;;;5.75;70.43;100687.47;5449761;32;35224;-63
2021/12/19 08:21:10;;;;;;;13.93;6.87;;;;;;;5.87;70.88;100676.84;5449540;32;33096;-63
2021/12/19 08:24:14;;;;;;;14.20;6.60;;;;;;;6.35;68.15;100656.94;5448857;32;34032;-63
2021/12/19 08:27:17;;;;;;;19.62;7.35;;;;;;;6.26;68.84;100658.88;5442458;32;35426;-62
2021/12/19 08:30:20;;;;;;;17.70;8.03;;;;;;;5.59;70.88;100665.94;5443128;32;34187;-62
2021/12/19 08:33:23;;;;;;;14.90;7.50;;;;;;;6.12;69.93;100651.25;5451820;32;34494;-63
2021/12/19 08:36:28;;;;;;;14.25;7.40;;;;;;;5.68;70.99;100643.22;5440052;32;33543;-62
2021/12/19 08:39:33;;;;;;;14.97;6.97;;;;;;;5.88;70.71;100647.25;5458681;32;34036;-63
2021/12/19 08:42:38;;;;;;;14.23;6.97;;;;;;;5.75;71.33;100645.72;5432170;32;33957;-63
2021/12/19 08:45:41;;;;;;;17.12;8.13;;;;;;;5.46;71.62;100651.34;5439595;32;33925;-63
2021/12/19 08:48:44;;;;;;;15.82;7.35;;;;;;;5.81;71.17;100641.28;5455391;32;33737;-63
2021/12/19 08:51:46;;;;;;;14.20;7.33;;;;;;;6.08;69.97;100654.81;5442216;32;32930;-62
2021/12/19 08:54:49;;;;;;;15.50;7.60;;;;;;;5.90;70.19;100648.09;5454390;32;35938;-64
2021/12/19 08:57:52;;;;;;;16.27;7.83;;;;;;;6.27;69.65;100642.31;5454709;32;33170;-61
2021/12/19 09:01:01;;;;;;;14.45;7.47;;;;;;;6.42;68.89;100640.28;5448367;32;34162;-63
2021/12/19 09:04:06;;;;;;;14.70;6.77;;;;;;;6.43;68.46;100634.16;5413966;32;175790;-63
2021/12/19 09:07:08;;;;;;;18.42;7.90;;;;;;;6.81;66.60;100631.72;5442087;32;34173;-62
2021/12/19 09:10:11;;;;;;;15.77;7.73;;;;;;;5.77;70.68;100644.81;5417025;32;34577;-62
2021/12/19 09:13:15;;;;;;;12.83;6.10;;;;;;;5.86;70.29;100642.06;5413114;32;34671;-62
2021/12/19 09:16:18;;;;;;;17.90;7.67;;;;;;;6.00;70.48;100635.81;5444542;32;34961;-63
2021/12/19 09:19:44;;;;;;;16.17;7.57;;;;;;;5.96;70.57;100621.94;5428143;32;34517;-62
2021/12/19 09:22:48;;;;;;;15.00;6.93;;;;;;;5.77;70.92;100618.72;5421661;32;34235;-63
2021/12/19 09:25:54;;;;;;;14.43;6.77;;;;;;;5.75;70.41;100609.22;5422750;32;34247;-63
2021/12/19 09:28:56;;;;;;;15.07;6.75;;;;;;;6.20;68.98;100600.66;5431636;32;33860;-63
2021/12/19 09:32:00;;;;;;;17.12;7.05;;;;;;;5.66;71.36;100589.34;5421346;32;34085;-63
2021/12/19 09:35:05;;;;;;;15.03;7.60;;;;;;;6.34;68.45;100597.78;5440196;32;34061;-63
2021/12/19 09:38:09;;;;;;;13.43;6.80;;;;;;;6.61;67.79;100600.75;5449455;32;34110;-63
2021/12/19 09:41:17;;;;;;;16.13;7.23;;;;;;;6.59;67.75;100589.50;5447525;32;34972;-63
2021/12/19 09:44:20;;;;;;;16.10;7.00;;;;;;;7.56;64.05;100568.22;5447835;32;32839;-62
2021/12/19 09:47:23;;;;;;;13.43;6.47;;;;;;;6.44;67.73;100573.25;5429970;32;34223;-62
2021/12/19 09:50:28;;;;;;;11.48;5.70;;;;;;;6.51;67.33;100567.00;5441601;32;33180;-62
2021/12/19 09:53:31;;;;;;;16.20;6.90;;;;;;;6.09;68.95;100567.78;5454490;32;33702;-63
2021/12/19 09:56:35;;;;;;;14.15;6.50;;;;;;;5.94;69.91;100550.66;5450433;32;34923;-62
2021/12/19 09:59:38;;;;;;;14.87;6.72;;;;;;;6.33;68.01;100543.84;5449813;32;34964;-63
2021/12/19 10:02:43;;;;;;;13.90;5.80;;;;;;;6.38;67.81;100526.38;5440888;32;32423;-63
2021/12/19 10:05:48;;;;;;;15.43;7.10;;;;;;;6.43;66.90;100521.87;5449896;32;34863;-62
2021/12/19 10:09:15;;;;;;;14.53;6.77;;;;;;;6.54;67.15;100513.84;5444217;32;33794;-63
2021/12/19 10:12:37;;;;;;;16.50;6.80;;;;;;;6.74;65.98;100516.91;5434727;32;34410;-64
2021/12/19 10:15:42;;;;;;;18.27;6.47;;;;;;;7.56;63.80;100508.06;5445241;32;32444;-62
2021/12/19 10:18:51;;;;;;;12.37;5.40;;;;;;;6.74;65.72;100505.59;5441785;32;35453;-62
2021/12/19 10:21:56;;;;;;;12.93;6.00;;;;;;;7.18;63.92;100501.13;5444950;32;33524;-63
2021/12/19 10:25:22;;;;;;;12.40;5.30;;;;;;;7.06;64.56;100507.50;5426481;32;33124;-64
2021/12/19 10:28:27;;;;;;;16.40;5.80;;;;;;;6.86;64.54;100496.62;5441153;32;37022;-63
2021/12/19 10:31:32;;;;;;;14.43;6.23;;;;;;;7.19;64.19;100487.16;5432358;32;34063;-63
2021/12/19 10:34:34;;;;;;;20.63;5.50;;;;;;;6.82;64.90;100488.00;5442694;32;34459;-63
2021/12/19 10:37:48;;;;;;;14.43;6.20;;;;;;;6.81;65.56;100482.81;5445799;32;35051;-62
2021/12/19 10:40:57;;;;;;;13.48;6.03;;;;;;;7.06;63.97;100474.37;5451653;32;34343;-63
2021/12/19 10:44:05;;;;;;;12.53;5.87;;;;;;;6.84;65.06;100480.13;5439302;32;33388;-62
2021/12/19 10:47:27;;;;;;;15.13;6.57;;;;;;;6.58;65.35;100468.50;5447537;32;35058;-64
2021/12/19 10:51:16;;;;;;;13.20;6.00;;;;;;;6.62;65.82;100471.91;5450539;32;33992;-63
2021/12/19 10:54:19;;;;;;;13.87;5.57;;;;;;;6.97;64.95;100464.16;5456183;32;34231;-64
2021/12/19 10:57:32;;;;;;;12.80;5.50;;;;;;;7.29;63.38;100462.53;5448211;32;34423;-62
2021/12/19 11:00:39;;;;;;;12.93;5.60;;;;;;;6.74;64.26;100446.38;5442673;32;32997;-62
2021/12/19 11:03:51;;;;;;;12.53;4.97;;;;;;;6.75;63.74;100455.06;5440218;32;33134;-63
2021/12/19 11:06:57;;;;;;;14.47;5.03;;;;;;;6.96;63.51;100449.38;5430634;32;34464;-64
2021/12/19 11:09:59;;;;;;;11.30;5.70;;;;;;;7.00;63.54;100464.06;5440370;32;34149;-63
2021/12/19 11:13:14;;;;;;;14.40;5.53;;;;;;;6.28;65.49;100469.12;5468328;32;34383;-63
2021/12/19 11:16:17;;;;;;;13.93;5.83;;;;;;;7.04;63.36;100477.94;5452545;32;33532;-64
2021/12/19 11:19:20;;;;;;;;;;;;;;;7.09;63.50;100481.31;5450702;32;35434;-62
2021/12/19 11:22:43;;;;;;;11.53;5.13;;;;;;;6.98;62.89;100480.69;5444253;32;35381;-62
2021/12/19 11:25:46;;;;;;;13.02;5.53;;;;;;;6.82;63.77;100471.47;5442628;32;34419;-63
2021/12/19 11:28:49;;;;;;;14.47;5.93;;;;;;;6.99;63.50;100471.94;5452340;32;34099;-63
2021/12/19 11:31:58;;;;;;;11.63;5.20;;;;;;;7.10;62.97;100456.03;5438629;32;34843;-63
2021/12/19 11:35:09;;;;;;;14.83;6.00;;;;;;;6.95;63.17;100454.59;5453829;32;33780;-63
2021/12/19 11:38:16;;;;;;;15.30;5.57;;;;;;;6.70;64.01;100452.56;5450417;32;34109;-63
2021/12/19 11:41:18;;;;;;;13.30;5.93;;;;;;;6.74;63.61;100459.44;5437112;32;32964;-63
2021/12/19 11:44:40;;;;;;;14.73;6.10;;;;;;;7.53;61.26;100448.81;5435494;32;35753;-62
2021/12/19 11:47:58;;;;;;;14.30;5.90;;;;;;;7.41;61.87;100450.91;5456142;32;34468;-63
2021/12/19 11:51:04;;;;;;;13.37;5.17;;;;;;;7.87;60.51;100440.09;5449434;32;35176;-63
2021/12/19 11:54:16;;;;;;;12.87;5.80;;;;;;;7.37;61.33;100455.34;5445921;32;32885;-63
2021/12/19 11:57:36;;;;;;;13.57;5.63;;;;;;;6.67;62.98;100457.84;5436918;32;32721;-63
2021/12/19 12:00:40;;;;;;;13.50;6.07;;;;;;;6.89;63.20;100447.78;5435520;32;33081;-62
2021/12/19 12:03:53;;;;;;;15.00;6.07;;;;;;;6.53;64.58;100454.69;5455133;32;33985;-63
2021/12/19 12:06:57;;;;;;;12.37;5.80;;;;;;;6.29;65.11;100452.59;5462630;32;35049;-62
2021/12/19 12:10:00;;;;;;;12.77;5.37;;;;;;;6.11;65.93;100441.59;5436436;32;36303;-62
2021/12/19 12:13:04;;;;;;;13.50;6.30;;;;;;;6.91;63.10;100440.78;5464274;32;34062;-64
2021/12/19 12:16:18;;;;;;;12.85;6.20;;;;;;;6.72;63.86;100440.31;5446192;32;34669;-63
2021/12/19 12:19:43;;;;;;;11.43;5.57;;;;;;;7.19;62.21;100427.91;5442868;32;32743;-62
2021/12/19 12:23:03;;;;;;;13.70;5.73;;;;;;;7.59;61.03;100435.56;5449060;32;34985;-63
2021/12/19 12:26:32;;;;;;;12.53;5.90;;;;;;;7.39;61.36;100422.16;5442276;32;34672;-62
2021/12/19 12:29:35;;;;;;;12.67;5.93;;;;;;;7.03;62.19;100422.19;5441874;32;34734;-64
2021/12/19 12:32:42;;;;;;;12.73;6.13;;;;;;;6.35;64.71;100429.81;5453113;32;34193;-63
2021/12/19 12:35:51;;;;;;;13.65;4.80;;;;;;;7.31;61.95;100411.06;5460054;32;34927;-63
2021/12/19 12:38:54;;;;;;;11.90;5.50;;;;;;;7.14;62.33;100416.69;5455614;32;32696;-62
2021/12/19 12:42:03;;;;;;;10.15;5.07;;;;;;;6.37;64.82;100430.63;5430684;32;34185;-63
2021/12/19 12:45:06;;;;;;;12.40;5.20;;;;;;;6.74;63.87;100414.16;5456975;32;33691;-64
2021/12/19 12:48:09;;;;;;;11.30;5.63;;;;;;;7.18;62.09;100417.47;5438049;32;33963;-63
2021/12/19 12:51:23;;;;;;;19.90;12.10;;;;;;;7.21;62.08;100420.00;5456900;32;34196;-63
2021/12/19 12:54:37;;;;;;;11.37;5.43;;;;;;;6.61;63.75;100412.72;5448797;32;34540;-63
2021/12/19 12:57:41;;;;;;;13.77;5.80;;;;;;;6.49;64.76;100411.25;5443212;32;32758;-62
2021/12/19 13:00:44;;;;;;;;;;;;;;;6.70;64.04;100389.03;5451684;32;35740;-62
2021/12/19 13:03:59;;;;;;;11.90;5.30;;;;;;;6.53;64.00;100383.31;5450633;32;36266;-62
2021/12/19 13:07:11;;;;;;;10.83;5.60;;;;;;;6.21;65.47;100375.31;5456138;32;34870;-62
2021/12/19 13:10:15;;;;;;;12.10;5.53;;;;;;;6.43;64.45;100385.25;5454679;32;33953;-63
2021/12/19 13:13:18;;;;;;;12.13;5.80;;;;;;;6.18;65.86;100395.38;5449399;32;32846;-62
2021/12/19 13:16:25;;;;;;;12.57;5.55;;;;;;;7.53;61.29;100382.56;5460824;32;35360;-65
2021/12/19 13:19:35;;;;;;;15.93;5.73;;;;;;;6.76;63.84;100378.41;5441644;32;34013;-64
2021/12/19 13:22:42;;;;;;;15.20;5.90;;;;;;;7.36;61.52;100390.03;5437061;32;35444;-63
2021/12/19 13:25:45;;;;;;;11.80;5.30;;;;;;;6.55;64.94;100400.66;5448650;32;34544;-62
2021/12/19 13:28:52;;;;;;;10.13;5.20;;;;;;;6.42;64.22;100380.94;5447719;32;36073;-64
2021/12/19 13:31:55;;;;;;;17.03;5.90;;;;;;;7.91;60.00;100378.91;5442914;32;34401;-63
2021/12/19 13:34:59;;;;;;;10.77;5.40;;;;;;;8.06;58.90;100375.03;5428038;32;35028;-63
2021/12/19 13:38:18;;;;;;;11.88;5.30;;;;;;;7.29;61.38;100381.47;5446251;32;35143;-63
2021/12/19 13:41:21;;;;;;;11.00;4.80;;;;;;;7.28;62.11;100371.94;5463263;32;34505;-64
2021/12/19 13:44:31;;;;;;;10.10;4.87;;;;;;;7.75;60.53;100370.66;5450691;32;33010;-64
2021/12/19 13:47:33;;;;;;;9.07;5.10;;;;;;;6.95;62.35;100369.22;5447574;32;33215;-63
2021/12/19 13:50:39;;;;;;;12.07;5.30;;;;;;;7.35;61.92;100346.47;5446668;32;34429;-63
2021/12/19 13:53:47;;;;;;;11.97;5.87;;;;;;;7.59;60.64;100354.50;5455778;32;34151;-63
2021/12/19 13:56:49;;;;;;;10.90;5.10;;;;;;;7.14;62.23;100355.72;5432181;32;33808;-64
2021/12/19 13:59:52;;;;;;;8.97;4.70;;;;;;;6.88;63.80;100366.81;5441155;32;34733;-63
2021/12/19 14:02:57;;;;;;;9.95;5.05;;;;;;;6.35;65.53;100361.94;5453353;32;35241;-63
2021/12/19 14:06:10;;;;;;;10.50;5.03;;;;;;;6.07;66.79;100355.63;5435152;32;34716;-63
2021/12/19 14:09:15;;;;;;;9.63;4.67;;;;;;;6.73;64.51;100334.09;5431193;32;34036;-62
2021/12/19 14:12:51;;;;;;;10.30;4.80;;;;;;;6.78;64.30;100340.94;5416806;32;33144;-63
2021/12/19 14:15:52;;;;;;;9.07;4.13;;;;;;;7.04;62.43;100342.88;5436340;32;34050;-64
2021/12/19 14:18:54;;;;;;;10.63;4.87;;;;;;;6.92;63.02;100329.28;5432463;32;34397;-65
2021/12/19 14:22:09;;;;;;;9.20;4.40;;;;;;;6.64;64.29;100339.53;5431242;32;33136;-62
2021/12/19 14:25:12;;;;;;;12.03;5.07;;;;;;;6.50;64.35;100332.00;5452671;32;33951;-63
2021/12/19 14:28:22;;;;;;;11.37;4.90;;;;;;;6.76;63.08;100318.34;5429153;32;34015;-63
2021/12/19 14:31:26;;;;;;;10.23;5.10;;;;;;;7.27;61.94;100317.91;5408296;32;34537;-64
2021/12/19 14:34:31;;;;;;;10.97;5.40;;;;;;;6.74;63.55;100318.37;5422949;32;34707;-62
2021/12/19 14:37:36;;;;;;;9.57;4.43;;;;;;;6.25;65.15;100318.69;5437506;32;33641;-63
2021/12/19 14:40:42;;;;;;;10.43;3.73;;;;;;;7.13;62.55;100309.56;5454244;32;34164;-63
2021/12/19 14:43:46;;;;;;;9.20;4.80;;;;;;;6.72;62.85;100314.94;5434118;32;32916;-62
2021/12/19 14:46:49;;;;;;;9.48;4.78;;;;;;;6.83;63.96;100306.84;5415295;32;33293;-63
2021/12/19 14:49:52;;;;;;;10.30;5.15;;;;;;;6.53;63.69;100310.22;5425513;32;35190;-63
2021/12/19 14:53:09;;;;;;;10.67;5.20;;;;;;;6.43;65.16;100305.19;5436255;32;34281;-63
2021/12/19 14:56:22;;;;;;;11.27;5.03;;;;;;;6.95;62.73;100303.91;5419113;32;35090;-63
2021/12/19 14:59:27;;;;;;;10.90;5.53;;;;;;;6.94;62.75;100302.19;5430800;32;33198;-62
2021/12/19 15:02:31;;;;;;;12.87;5.57;;;;;;;6.91;62.90;100288.37;5436014;32;34198;-62
2021/12/19 15:05:35;;;;;;;12.85;5.43;;;;;;;6.31;65.46;100287.22;5430555;32;34501;-63
2021/12/19 15:08:39;;;;;;;10.50;5.33;;;;;;;6.82;63.56;100288.59;5433901;32;33437;-62
2021/12/19 15:11:45;;;;;;;8.82;4.60;;;;;;;6.67;64.50;100293.31;5447665;32;34016;-63
2021/12/19 15:14:47;;;;;;;13.13;5.03;;;;;;;6.62;64.79;100281.25;5446591;32;35016;-62
2021/12/19 15:17:49;;;;;;;9.50;4.83;;;;;;;6.93;63.74;100278.72;5425891;32;34807;-63
2021/12/19 15:20:55;;;;;;;9.43;5.03;;;;;;;6.24;65.66;100272.56;5422756;32;33699;-64
2021/12/19 15:24:01;;;;;;;9.70;4.97;;;;;;;6.62;64.82;100265.59;5433137;32;32996;-63
2021/12/19 15:27:05;;;;;;;11.57;5.37;;;;;;;6.71;64.59;100267.97;5441406;32;32939;-63
2021/12/19 15:30:10;;;;;;;11.07;5.30;;;;;;;6.73;64.17;100274.00;5432337;32;33007;-64